createdAt,value
2023-01-23T00:01:57.461Z,100.00
2023-01-23T00:06:58.348Z,100.00
2023-01-23T00:11:59.504Z,100.00
2023-01-23T00:17:00.278Z,100.00
2023-01-23T00:22:01.051Z,100.00
2023-01-23T00:27:01.939Z,100.00
2023-01-23T00:32:03.195Z,100.00
2023-01-23T00:37:04.144Z,100.00
2023-01-23T00:42:05.503Z,100.00
2023-01-23T00:47:06.516Z,100.00
2023-01-23T00:52:07.329Z,100.00
2023-01-23T00:57:08.163Z,100.00
2023-01-23T01:02:09.040Z,100.00
2023-01-23T01:07:09.802Z,100.00
2023-01-23T01:12:10.974Z,100.00
2023-01-23T01:17:11.767Z,100.00
2023-01-23T01:22:12.521Z,100.00
2023-01-23T01:27:13.381Z,100.00
2023-01-23T01:32:14.429Z,100.00
2023-01-23T01:37:15.186Z,100.00
2023-01-23T01:42:16.801Z,100.00
2023-01-23T01:47:17.652Z,100.00
2023-01-23T01:52:21.305Z,100.00
2023-01-23T01:57:29.653Z,100.00
2023-01-23T02:02:52.656Z,100.00
2023-01-23T02:08:04.541Z,100.00
2023-01-23T02:13:29.639Z,100.00
2023-01-23T02:18:33.882Z,100.00
2023-01-23T02:23:54.479Z,100.00
2023-01-23T02:28:58.573Z,100.00
2023-01-23T02:34:02.876Z,100.00
2023-01-23T02:39:13.499Z,100.00
2023-01-23T02:44:26.150Z,100.00
2023-01-23T02:49:30.196Z,100.00
2023-01-23T02:54:31.051Z,100.00
2023-01-23T02:59:50.264Z,100.00
2023-01-23T03:04:51.346Z,100.00
2023-01-23T03:09:53.700Z,100.00
2023-01-23T03:14:55.729Z,100.00
2023-01-23T03:19:56.967Z,100.00
2023-01-23T03:24:58.094Z,100.00
2023-01-23T03:30:15.183Z,100.00
2023-01-23T03:35:19.453Z,100.00
2023-01-23T03:40:41.323Z,100.00
2023-01-23T03:45:43.260Z,100.00
2023-01-23T03:50:45.055Z,100.00
2023-01-23T03:55:46.900Z,100.00
2023-01-23T04:00:48.751Z,100.00
2023-01-23T04:05:56.293Z,100.00
2023-01-23T04:11:06.645Z,100.00
2023-01-23T04:16:07.631Z,100.00
2023-01-23T04:21:09.741Z,100.00
2023-01-23T04:26:10.966Z,100.00
2023-01-23T04:31:12.165Z,100.00
2023-01-23T04:36:13.594Z,100.00
2023-01-23T04:41:20.995Z,100.00
2023-01-23T04:46:22.267Z,100.00
2023-01-23T04:51:33.661Z,100.00
2023-01-23T04:56:34.488Z,100.00
2023-01-23T05:01:36.556Z,100.00
2023-01-23T05:06:38.056Z,100.00
2023-01-23T05:11:39.592Z,100.00
2023-01-23T05:16:42.053Z,100.00
2023-01-23T05:21:52.406Z,100.00
2023-01-23T05:26:54.683Z,100.00
2023-01-23T05:31:55.945Z,100.00
2023-01-23T05:37:25.019Z,100.00
2023-01-23T05:42:27.660Z,100.00
2023-01-23T05:47:47.920Z,100.00
2023-01-23T05:52:50.849Z,100.00
2023-01-23T05:57:52.247Z,100.00
2023-01-23T06:03:11.795Z,100.00
2023-01-23T06:08:23.800Z,100.00
2023-01-23T06:13:26.783Z,100.00
2023-01-23T06:18:27.540Z,100.00
2023-01-23T06:23:29.021Z,100.00
2023-01-23T06:28:32.374Z,100.00
2023-01-23T06:33:33.393Z,100.00
2023-01-23T06:38:34.739Z,100.00
2023-01-23T06:43:37.310Z,100.00
2023-01-23T06:48:39.574Z,100.00
2023-01-23T06:53:40.949Z,100.00
2023-01-23T06:58:45.631Z,100.00
2023-01-23T07:03:54.646Z,100.00
2023-01-23T07:08:56.091Z,100.00
2023-01-23T07:13:57.276Z,100.00
2023-01-23T07:19:00.857Z,100.00
2023-01-23T07:24:05.931Z,100.00
2023-01-23T07:29:08.110Z,100.00
2023-01-23T07:34:08.973Z,100.00
2023-01-23T07:39:09.740Z,100.00
2023-01-23T07:44:16.857Z,100.00
2023-01-23T07:49:17.733Z,100.00
2023-01-23T07:54:19.033Z,100.00
2023-01-23T07:59:19.782Z,100.00
2023-01-23T08:04:20.675Z,100.00
2023-01-23T08:09:21.643Z,100.00
2023-01-23T08:14:22.463Z,100.00
2023-01-23T08:19:26.574Z,100.00
2023-01-23T08:24:27.310Z,100.00
2023-01-23T08:29:28.145Z,100.00
2023-01-23T08:34:28.993Z,100.00
2023-01-23T08:39:29.798Z,100.00
2023-01-23T08:44:33.404Z,100.00
2023-01-23T08:49:34.124Z,100.00
2023-01-23T08:54:35.290Z,100.00
2023-01-23T08:59:36.033Z,100.00
2023-01-23T09:04:37.007Z,100.00
2023-01-23T09:09:37.792Z,100.00
2023-01-23T09:14:38.715Z,100.00
2023-01-23T09:19:39.440Z,100.00
2023-01-23T09:24:40.220Z,100.00
2023-01-23T09:29:40.951Z,100.00
2023-01-23T09:34:42.066Z,100.00
2023-01-23T09:39:43.430Z,100.00
2023-01-23T09:44:56.524Z,100.00
2023-01-23T09:50:06.384Z,100.00
2023-01-23T09:55:18.390Z,100.00
2023-01-23T10:00:25.216Z,100.00
2023-01-23T10:05:38.539Z,100.00
2023-01-23T10:10:52.863Z,100.00
2023-01-23T10:16:22.372Z,100.00
2023-01-23T10:27:50.510Z,100.00
2023-01-23T10:33:38.689Z,100.00
2023-01-23T10:38:56.771Z,100.00
2023-01-23T10:43:59.483Z,100.00
2023-01-23T10:49:01.742Z,100.00
2023-01-23T10:54:16.953Z,100.00
2023-01-23T10:59:34.474Z,100.00
2023-01-23T11:04:36.170Z,100.00
2023-01-23T11:09:55.342Z,100.00
2023-01-23T11:15:23.267Z,100.00
2023-01-23T11:20:34.501Z,100.00
2023-01-23T11:25:47.145Z,100.00
2023-01-23T11:31:15.921Z,100.00
2023-01-23T11:36:37.235Z,100.00
2023-01-23T11:41:39.004Z,100.00
2023-01-23T11:47:09.629Z,100.00
2023-01-23T11:52:57.315Z,100.00
2023-01-23T11:58:49.045Z,100.00
2023-01-23T12:10:55.923Z,100.00
2023-01-23T12:20:38.873Z,100.00
2023-01-23T12:25:42.167Z,100.00
2023-01-23T12:35:45.639Z,100.00
2023-01-23T12:41:24.454Z,100.00
2023-01-23T12:46:33.224Z,100.00
2023-01-23T12:51:38.376Z,100.00
2023-01-23T12:56:41.087Z,100.00
2023-01-23T13:01:55.029Z,100.00
2023-01-23T13:07:07.792Z,100.00
2023-01-23T13:12:22.963Z,100.00
2023-01-23T13:19:11.455Z,100.00
2023-01-23T13:28:01.085Z,100.00
2023-01-23T13:36:13.987Z,100.00
2023-01-23T13:41:27.893Z,100.00
2023-01-23T13:46:43.967Z,100.00
2023-01-23T13:51:45.230Z,100.00
2023-01-23T13:56:48.596Z,96.46
2023-01-23T14:02:23.166Z,93.03
2023-01-23T14:07:48.465Z,83.37
2023-01-23T14:12:51.126Z,83.82
2023-01-23T14:17:52.018Z,88.19
2023-01-23T14:22:54.624Z,91.84
2023-01-23T14:28:03.807Z,93.00
2023-01-23T14:33:10.953Z,89.77
2023-01-23T14:38:22.268Z,88.76
2023-01-23T14:43:27.642Z,92.07
2023-01-23T14:48:31.402Z,95.61
2023-01-23T14:53:32.268Z,98.09
2023-01-23T14:58:33.459Z,100.00
2023-01-23T15:03:55.379Z,100.00
2023-01-23T15:09:06.878Z,100.00
2023-01-23T15:14:26.130Z,100.00
2023-01-23T15:19:27.813Z,100.00
2023-01-23T15:24:28.680Z,100.00
2023-01-23T15:29:30.431Z,100.00
2023-01-23T15:34:33.587Z,100.00
2023-01-23T15:39:53.601Z,100.00
2023-01-23T15:44:54.660Z,100.00
2023-01-23T15:49:55.721Z,100.00
2023-01-23T15:55:00.817Z,100.00
2023-01-23T16:00:12.677Z,100.00
2023-01-23T16:05:13.618Z,100.00
2023-01-23T16:10:29.625Z,100.00
2023-01-23T16:15:33.343Z,100.00
2023-01-23T16:20:39.754Z,100.00
2023-01-23T16:25:45.788Z,100.00
2023-01-23T16:30:49.932Z,100.00
2023-01-23T16:35:51.403Z,100.00
2023-01-23T16:40:53.784Z,100.00
2023-01-23T16:45:56.491Z,100.00
2023-01-23T16:51:43.079Z,100.00
2023-01-23T16:56:47.087Z,100.00
2023-01-23T17:01:50.750Z,100.00
2023-01-23T17:06:51.709Z,100.00
2023-01-23T17:11:55.849Z,100.00
2023-01-23T17:17:09.646Z,100.00
2023-01-23T17:22:26.599Z,100.00
2023-01-23T17:27:27.569Z,100.00
2023-01-23T17:32:33.815Z,100.00
2023-01-23T17:37:34.794Z,100.00
2023-01-23T17:42:35.618Z,100.00
2023-01-23T17:47:36.867Z,100.00
2023-01-23T17:52:37.639Z,100.00
2023-01-23T17:57:38.466Z,100.00
2023-01-23T18:02:40.103Z,100.00
2023-01-23T18:07:53.111Z,100.00
2023-01-23T18:13:45.347Z,100.00
2023-01-23T18:18:52.260Z,100.00
2023-01-23T18:23:53.892Z,100.00
2023-01-23T18:29:30.992Z,100.00
2023-01-23T18:34:47.222Z,100.00
2023-01-23T18:42:31.269Z,100.00
2023-01-23T18:47:32.504Z,100.00
2023-01-23T18:52:50.417Z,100.00
2023-01-23T18:58:39.569Z,100.00
2023-01-23T19:03:44.049Z,100.00
2023-01-23T19:08:45.188Z,100.00
2023-01-23T19:14:15.620Z,100.00
2023-01-23T19:22:04.766Z,100.00
2023-01-23T19:27:22.774Z,100.00
2023-01-23T19:32:24.095Z,100.00
2023-01-23T19:37:25.467Z,100.00
2023-01-23T19:42:26.239Z,100.00
2023-01-23T19:47:27.007Z,100.00
2023-01-23T19:52:27.752Z,100.00
2023-01-23T19:57:29.746Z,100.00
2023-01-23T20:02:30.676Z,100.00
2023-01-23T20:07:31.488Z,100.00
2023-01-23T20:12:38.967Z,100.00
2023-01-23T20:17:40.669Z,100.00
2023-01-23T20:22:42.799Z,100.00
2023-01-23T20:27:44.054Z,100.00
2023-01-23T20:32:44.907Z,100.00
2023-01-23T20:37:45.747Z,100.00
2023-01-23T20:42:46.531Z,100.00
2023-01-23T20:47:47.247Z,100.00
2023-01-23T20:53:06.496Z,100.00
2023-01-23T20:58:25.876Z,100.00
2023-01-23T21:03:26.665Z,100.00
2023-01-23T21:08:27.647Z,100.00
2023-01-23T21:13:28.376Z,100.00
2023-01-23T21:18:29.814Z,100.00
2023-01-23T21:23:30.563Z,100.00
2023-01-23T21:28:34.380Z,100.00
2023-01-23T21:33:35.334Z,100.00
2023-01-23T21:38:36.287Z,100.00
2023-01-23T21:43:37.185Z,100.00
2023-01-23T21:48:38.608Z,100.00
2023-01-23T21:53:42.448Z,100.00
2023-01-23T21:58:43.915Z,100.00
2023-01-23T22:03:44.868Z,100.00
2023-01-23T22:08:45.730Z,100.00
2023-01-23T22:13:46.739Z,100.00
2023-01-23T22:18:47.553Z,100.00
2023-01-23T22:23:48.328Z,100.00
2023-01-23T22:28:49.969Z,100.00
2023-01-23T22:33:50.710Z,100.00
2023-01-23T22:38:53.178Z,100.00
2023-01-23T22:43:55.349Z,100.00
2023-01-23T22:48:56.129Z,100.00
2023-01-23T22:53:58.100Z,100.00
2023-01-23T22:59:00.901Z,100.00
2023-01-23T23:04:02.104Z,100.00
2023-01-23T23:09:04.432Z,100.00
2023-01-23T23:14:05.600Z,100.00
2023-01-23T23:19:06.428Z,100.00
2023-01-23T23:24:09.940Z,100.00
2023-01-23T23:29:10.810Z,100.00
2023-01-23T23:34:11.864Z,100.00
2023-01-23T23:39:12.723Z,100.00
2023-01-23T23:44:13.484Z,100.00
2023-01-23T23:49:14.249Z,100.00
2023-01-23T23:54:14.995Z,100.00
2023-01-23T23:59:15.982Z,100.00
